sensor_id;sensor_type;location;lat;lon;timestamp;P1;durP1;ratioP1;P2;durP2;ratioP2
2175;SDS011;1094;49.902;10.876;2023-03-14T00:01:48;10.30;;;9.70;;
2175;SDS011;1094;49.902;10.876;2023-03-14T00:04:14;10.00;;;9.60;;
2175;SDS011;1094;49.902;10.876;2023-03-14T00:06:40;9.53;;;9.13;;
2175;SDS011;1094;49.902;10.876;2023-03-14T00:09:06;10.10;;;9.60;;
2175;SDS011;1094;49.902;10.876;2023-03-14T00:11:32;9.30;;;8.90;;
2175;SDS011;1094;49.902;10.876;2023-03-14T00:13:59;9.03;;;8.73;;
2175;SDS011;1094;49.902;10.876;2023-03-14T00:16:25;9.37;;;8.97;;
2175;SDS011;1094;49.902;10.876;2023-03-14T00:18:51;9.00;;;8.70;;
2175;SDS011;1094;49.902;10.876;2023-03-14T00:21:17;10.00;;;9.60;;
2175;SDS011;1094;49.902;10.876;2023-03-14T00:23:43;9.70;;;9.30;;
2175;SDS011;1094;49.902;10.876;2023-03-14T00:26:10;9.60;;;9.07;;
2175;SDS011;1094;49.902;10.876;2023-03-14T00:28:37;9.30;;;8.90;;
2175;SDS011;1094;49.902;10.876;2023-03-14T00:31:03;9.50;;;9.03;;
2175;SDS011;1094;49.902;10.876;2023-03-14T00:33:30;9.30;;;9.00;;
2175;SDS011;1094;49.902;10.876;2023-03-14T00:35:56;9.87;;;9.47;;
2175;SDS011;1094;49.902;10.876;2023-03-14T00:38:23;9.70;;;9.30;;
2175;SDS011;1094;49.902;10.876;2023-03-14T00:40:49;9.53;;;9.17;;
2175;SDS011;1094;49.902;10.876;2023-03-14T00:43:16;10.00;;;9.57;;
2175;SDS011;1094;49.902;10.876;2023-03-14T00:45:42;10.20;;;9.80;;
2175;SDS011;1094;49.902;10.876;2023-03-14T00:50:50;10.80;;;10.40;;
2175;SDS011;1094;49.902;10.876;2023-03-14T00:53:16;10.70;;;10.30;;
2175;SDS011;1094;49.902;10.876;2023-03-14T00:55:43;10.67;;;10.27;;
2175;SDS011;1094;49.902;10.876;2023-03-14T00:58:10;10.70;;;10.30;;
2175;SDS011;1094;49.902;10.876;2023-03-14T01:00:36;11.20;;;10.80;;
2175;SDS011;1094;49.902;10.876;2023-03-14T01:03:03;11.50;;;11.00;;
2175;SDS011;1094;49.902;10.876;2023-03-14T01:05:29;10.97;;;10.57;;
2175;SDS011;1094;49.902;10.876;2023-03-14T01:07:55;11.27;;;10.63;;
2175;SDS011;1094;49.902;10.876;2023-03-14T01:10:21;11.10;;;10.50;;
2175;SDS011;1094;49.902;10.876;2023-03-14T01:12:47;10.93;;;10.43;;
2175;SDS011;1094;49.902;10.876;2023-03-14T01:15:13;12.10;;;11.50;;
2175;SDS011;1094;49.902;10.876;2023-03-14T01:17:39;10.93;;;10.43;;
2175;SDS011;1094;49.902;10.876;2023-03-14T01:20:06;11.70;;;11.20;;
2175;SDS011;1094;49.902;10.876;2023-03-14T01:22:34;11.27;;;10.83;;
2175;SDS011;1094;49.902;10.876;2023-03-14T01:25:00;11.63;;;11.13;;
2175;SDS011;1094;49.902;10.876;2023-03-14T01:27:26;11.67;;;11.07;;
2175;SDS011;1094;49.902;10.876;2023-03-14T01:29:52;11.27;;;10.87;;
2175;SDS011;1094;49.902;10.876;2023-03-14T01:32:18;12.20;;;11.70;;
2175;SDS011;1094;49.902;10.876;2023-03-14T01:34:43;12.50;;;11.90;;
2175;SDS011;1094;49.902;10.876;2023-03-14T01:37:09;12.27;;;11.77;;
2175;SDS011;1094;49.902;10.876;2023-03-14T01:39:36;12.50;;;12.00;;
2175;SDS011;1094;49.902;10.876;2023-03-14T01:42:03;12.73;;;11.80;;
2175;SDS011;1094;49.902;10.876;2023-03-14T01:44:46;12.30;;;11.80;;
2175;SDS011;1094;49.902;10.876;2023-03-14T01:47:11;12.30;;;11.80;;
2175;SDS011;1094;49.902;10.876;2023-03-14T01:49:37;12.60;;;12.10;;
2175;SDS011;1094;49.902;10.876;2023-03-14T01:52:05;12.30;;;11.70;;
2175;SDS011;1094;49.902;10.876;2023-03-14T01:54:44;11.90;;;11.40;;
2175;SDS011;1094;49.902;10.876;2023-03-14T01:57:28;13.07;;;12.37;;
2175;SDS011;1094;49.902;10.876;2023-03-14T02:00:00;12.90;;;12.00;;
2175;SDS011;1094;49.902;10.876;2023-03-14T02:02:27;12.30;;;11.80;;
2175;SDS011;1094;49.902;10.876;2023-03-14T02:04:53;12.30;;;11.80;;
2175;SDS011;1094;49.902;10.876;2023-03-14T02:09:55;12.90;;;12.27;;
2175;SDS011;1094;49.902;10.876;2023-03-14T02:12:22;12.60;;;12.10;;
2175;SDS011;1094;49.902;10.876;2023-03-14T02:14:48;13.27;;;12.73;;
2175;SDS011;1094;49.902;10.876;2023-03-14T02:17:14;12.87;;;12.37;;
2175;SDS011;1094;49.902;10.876;2023-03-14T02:19:50;13.30;;;12.77;;
2175;SDS011;1094;49.902;10.876;2023-03-14T02:22:18;13.63;;;13.03;;
2175;SDS011;1094;49.902;10.876;2023-03-14T02:24:46;13.90;;;13.30;;
2175;SDS011;1094;49.902;10.876;2023-03-14T02:27:17;13.23;;;12.73;;
2175;SDS011;1094;49.902;10.876;2023-03-14T02:32:13;13.30;;;12.80;;
2175;SDS011;1094;49.902;10.876;2023-03-14T02:34:40;13.70;;;13.10;;
2175;SDS011;1094;49.902;10.876;2023-03-14T02:37:08;13.47;;;12.80;;
2175;SDS011;1094;49.902;10.876;2023-03-14T02:39:35;14.20;;;13.60;;
2175;SDS011;1094;49.902;10.876;2023-03-14T02:42:02;14.23;;;13.60;;
2175;SDS011;1094;49.902;10.876;2023-03-14T02:44:28;14.00;;;13.30;;
2175;SDS011;1094;49.902;10.876;2023-03-14T02:46:54;13.40;;;12.90;;
2175;SDS011;1094;49.902;10.876;2023-03-14T02:49:20;13.70;;;13.13;;
2175;SDS011;1094;49.902;10.876;2023-03-14T02:51:46;13.80;;;13.20;;
2175;SDS011;1094;49.902;10.876;2023-03-14T02:54:13;13.20;;;12.70;;
2175;SDS011;1094;49.902;10.876;2023-03-14T02:56:40;13.70;;;13.13;;
2175;SDS011;1094;49.902;10.876;2023-03-14T02:59:06;14.30;;;13.70;;
2175;SDS011;1094;49.902;10.876;2023-03-14T03:01:32;13.90;;;13.30;;
2175;SDS011;1094;49.902;10.876;2023-03-14T03:03:58;14.10;;;13.50;;
2175;SDS011;1094;49.902;10.876;2023-03-14T03:06:24;13.90;;;13.30;;
2175;SDS011;1094;49.902;10.876;2023-03-14T03:08:50;14.40;;;13.70;;
2175;SDS011;1094;49.902;10.876;2023-03-14T03:11:16;14.60;;;14.00;;
2175;SDS011;1094;49.902;10.876;2023-03-14T03:13:42;14.73;;;14.03;;
2175;SDS011;1094;49.902;10.876;2023-03-14T03:16:08;14.17;;;13.57;;
2175;SDS011;1094;49.902;10.876;2023-03-14T03:18:34;14.20;;;13.60;;
2175;SDS011;1094;49.902;10.876;2023-03-14T03:21:01;14.77;;;14.17;;
2175;SDS011;1094;49.902;10.876;2023-03-14T03:23:27;14.30;;;13.70;;
2175;SDS011;1094;49.902;10.876;2023-03-14T03:25:53;14.77;;;14.07;;
2175;SDS011;1094;49.902;10.876;2023-03-14T03:28:19;15.00;;;14.30;;
2175;SDS011;1094;49.902;10.876;2023-03-14T03:30:45;14.97;;;14.17;;
2175;SDS011;1094;49.902;10.876;2023-03-14T03:33:11;14.60;;;13.93;;
2175;SDS011;1094;49.902;10.876;2023-03-14T03:35:45;14.27;;;13.67;;
2175;SDS011;1094;49.902;10.876;2023-03-14T03:38:11;13.83;;;13.30;;
2175;SDS011;1094;49.902;10.876;2023-03-14T03:40:37;14.30;;;13.70;;
2175;SDS011;1094;49.902;10.876;2023-03-14T03:43:03;13.53;;;12.93;;
2175;SDS011;1094;49.902;10.876;2023-03-14T03:45:29;14.40;;;13.70;;
2175;SDS011;1094;49.902;10.876;2023-03-14T03:47:55;13.50;;;13.00;;
2175;SDS011;1094;49.902;10.876;2023-03-14T03:50:21;13.60;;;13.00;;
2175;SDS011;1094;49.902;10.876;2023-03-14T03:52:47;13.87;;;13.27;;
2175;SDS011;1094;49.902;10.876;2023-03-14T03:55:13;13.50;;;12.93;;
2175;SDS011;1094;49.902;10.876;2023-03-14T03:57:39;14.00;;;13.27;;
2175;SDS011;1094;49.902;10.876;2023-03-14T04:00:05;13.67;;;13.17;;
2175;SDS011;1094;49.902;10.876;2023-03-14T04:02:34;13.13;;;12.63;;
2175;SDS011;1094;49.902;10.876;2023-03-14T04:05:00;13.40;;;12.80;;
2175;SDS011;1094;49.902;10.876;2023-03-14T04:07:26;12.90;;;12.20;;
2175;SDS011;1094;49.902;10.876;2023-03-14T04:09:52;13.17;;;12.67;;
2175;SDS011;1094;49.902;10.876;2023-03-14T04:12:18;13.27;;;12.67;;
2175;SDS011;1094;49.902;10.876;2023-03-14T04:14:44;13.30;;;12.70;;
2175;SDS011;1094;49.902;10.876;2023-03-14T04:17:11;12.90;;;12.40;;
2175;SDS011;1094;49.902;10.876;2023-03-14T04:19:36;13.47;;;12.87;;
2175;SDS011;1094;49.902;10.876;2023-03-14T04:22:02;13.30;;;12.70;;
2175;SDS011;1094;49.902;10.876;2023-03-14T04:24:28;12.87;;;12.37;;
2175;SDS011;1094;49.902;10.876;2023-03-14T04:26:54;12.67;;;12.00;;
2175;SDS011;1094;49.902;10.876;2023-03-14T04:29:20;12.93;;;12.33;;
2175;SDS011;1094;49.902;10.876;2023-03-14T04:31:46;13.77;;;13.17;;
2175;SDS011;1094;49.902;10.876;2023-03-14T04:34:12;13.10;;;12.40;;
2175;SDS011;1094;49.902;10.876;2023-03-14T04:36:38;13.07;;;12.57;;
2175;SDS011;1094;49.902;10.876;2023-03-14T04:39:04;13.47;;;12.60;;
2175;SDS011;1094;49.902;10.876;2023-03-14T04:41:30;13.30;;;12.70;;
2175;SDS011;1094;49.902;10.876;2023-03-14T04:43:57;12.93;;;12.43;;
2175;SDS011;1094;49.902;10.876;2023-03-14T04:46:23;13.63;;;13.03;;
2175;SDS011;1094;49.902;10.876;2023-03-14T04:48:49;13.03;;;12.53;;
2175;SDS011;1094;49.902;10.876;2023-03-14T04:51:14;13.00;;;12.30;;
2175;SDS011;1094;49.902;10.876;2023-03-14T04:53:40;13.03;;;12.43;;
2175;SDS011;1094;49.902;10.876;2023-03-14T04:56:06;13.10;;;12.50;;
2175;SDS011;1094;49.902;10.876;2023-03-14T04:58:32;13.30;;;12.50;;
2175;SDS011;1094;49.902;10.876;2023-03-14T05:01:04;13.37;;;12.77;;
2175;SDS011;1094;49.902;10.876;2023-03-14T05:03:30;13.30;;;12.70;;
2175;SDS011;1094;49.902;10.876;2023-03-14T05:05:56;13.37;;;12.77;;
2175;SDS011;1094;49.902;10.876;2023-03-14T05:08:23;12.97;;;12.40;;
2175;SDS011;1094;49.902;10.876;2023-03-14T05:10:53;13.80;;;13.10;;
2175;SDS011;1094;49.902;10.876;2023-03-14T05:13:19;13.60;;;12.90;;
2175;SDS011;1094;49.902;10.876;2023-03-14T05:15:45;13.30;;;12.70;;
2175;SDS011;1094;49.902;10.876;2023-03-14T05:18:11;12.83;;;12.33;;
2175;SDS011;1094;49.902;10.876;2023-03-14T05:20:37;12.87;;;12.17;;
2175;SDS011;1094;49.902;10.876;2023-03-14T05:23:02;12.83;;;12.30;;
2175;SDS011;1094;49.902;10.876;2023-03-14T05:25:28;12.43;;;11.83;;
2175;SDS011;1094;49.902;10.876;2023-03-14T05:27:55;12.10;;;11.60;;
2175;SDS011;1094;49.902;10.876;2023-03-14T05:30:21;12.03;;;11.53;;
2175;SDS011;1094;49.902;10.876;2023-03-14T05:32:47;11.90;;;11.40;;
2175;SDS011;1094;49.902;10.876;2023-03-14T05:35:13;11.83;;;11.23;;
2175;SDS011;1094;49.902;10.876;2023-03-14T05:37:39;11.40;;;10.90;;
2175;SDS011;1094;49.902;10.876;2023-03-14T05:40:05;11.43;;;10.97;;
2175;SDS011;1094;49.902;10.876;2023-03-14T05:42:32;11.47;;;11.07;;
2175;SDS011;1094;49.902;10.876;2023-03-14T05:44:58;11.87;;;11.37;;
2175;SDS011;1094;49.902;10.876;2023-03-14T05:47:24;12.73;;;12.13;;
2175;SDS011;1094;49.902;10.876;2023-03-14T05:49:50;12.53;;;11.77;;
2175;SDS011;1094;49.902;10.876;2023-03-14T05:52:16;11.73;;;11.23;;
2175;SDS011;1094;49.902;10.876;2023-03-14T05:54:42;11.50;;;11.00;;
2175;SDS011;1094;49.902;10.876;2023-03-14T05:57:08;12.23;;;11.63;;
2175;SDS011;1094;49.902;10.876;2023-03-14T05:59:34;11.67;;;11.17;;
2175;SDS011;1094;49.902;10.876;2023-03-14T06:02:00;12.63;;;12.10;;
2175;SDS011;1094;49.902;10.876;2023-03-14T06:04:25;12.70;;;12.10;;
2175;SDS011;1094;49.902;10.876;2023-03-14T06:06:51;12.87;;;12.37;;
2175;SDS011;1094;49.902;10.876;2023-03-14T06:09:17;13.30;;;12.70;;
2175;SDS011;1094;49.902;10.876;2023-03-14T06:11:45;13.27;;;12.67;;
2175;SDS011;1094;49.902;10.876;2023-03-14T06:14:11;13.20;;;12.60;;
2175;SDS011;1094;49.902;10.876;2023-03-14T06:16:37;13.10;;;12.50;;
2175;SDS011;1094;49.902;10.876;2023-03-14T06:19:03;13.67;;;12.97;;
2175;SDS011;1094;49.902;10.876;2023-03-14T06:21:29;13.93;;;13.23;;
2175;SDS011;1094;49.902;10.876;2023-03-14T06:23:55;14.07;;;13.53;;
2175;SDS011;1094;49.902;10.876;2023-03-14T06:26:21;14.63;;;13.93;;
2175;SDS011;1094;49.902;10.876;2023-03-14T06:28:48;14.60;;;13.90;;
2175;SDS011;1094;49.902;10.876;2023-03-14T06:31:15;14.20;;;13.60;;
2175;SDS011;1094;49.902;10.876;2023-03-14T06:33:41;14.57;;;13.87;;
2175;SDS011;1094;49.902;10.876;2023-03-14T06:36:07;15.00;;;14.30;;
2175;SDS011;1094;49.902;10.876;2023-03-14T06:38:33;15.13;;;14.40;;
2175;SDS011;1094;49.902;10.876;2023-03-14T06:41:03;15.67;;;14.70;;
2175;SDS011;1094;49.902;10.876;2023-03-14T06:43:29;15.70;;;14.80;;
2175;SDS011;1094;49.902;10.876;2023-03-14T06:45:55;15.73;;;15.03;;
2175;SDS011;1094;49.902;10.876;2023-03-14T06:48:21;16.17;;;15.40;;
2175;SDS011;1094;49.902;10.876;2023-03-14T06:50:48;16.70;;;16.00;;
2175;SDS011;1094;49.902;10.876;2023-03-14T06:53:14;16.63;;;15.87;;
2175;SDS011;1094;49.902;10.876;2023-03-14T06:55:40;16.93;;;15.93;;
2175;SDS011;1094;49.902;10.876;2023-03-14T06:58:08;17.23;;;16.33;;
2175;SDS011;1094;49.902;10.876;2023-03-14T07:00:34;17.33;;;16.43;;
2175;SDS011;1094;49.902;10.876;2023-03-14T07:03:00;17.43;;;16.33;;
2175;SDS011;1094;49.902;10.876;2023-03-14T07:05:26;17.07;;;16.27;;
2175;SDS011;1094;49.902;10.876;2023-03-14T07:07:53;17.10;;;16.20;;
2175;SDS011;1094;49.902;10.876;2023-03-14T07:10:21;17.27;;;16.47;;
2175;SDS011;1094;49.902;10.876;2023-03-14T07:12:47;17.70;;;16.90;;
2175;SDS011;1094;49.902;10.876;2023-03-14T07:15:14;17.90;;;17.10;;
2175;SDS011;1094;49.902;10.876;2023-03-14T07:17:40;17.87;;;16.87;;
2175;SDS011;1094;49.902;10.876;2023-03-14T07:20:06;17.60;;;16.80;;
2175;SDS011;1094;49.902;10.876;2023-03-14T07:22:32;17.73;;;16.93;;
2175;SDS011;1094;49.902;10.876;2023-03-14T07:24:58;17.70;;;16.90;;
2175;SDS011;1094;49.902;10.876;2023-03-14T07:27:25;17.67;;;16.83;;
2175;SDS011;1094;49.902;10.876;2023-03-14T07:29:50;18.10;;;17.20;;
2175;SDS011;1094;49.902;10.876;2023-03-14T07:32:16;17.40;;;16.60;;
2175;SDS011;1094;49.902;10.876;2023-03-14T07:34:43;17.97;;;17.17;;
2175;SDS011;1094;49.902;10.876;2023-03-14T07:37:09;17.50;;;16.70;;
2175;SDS011;1094;49.902;10.876;2023-03-14T07:39:35;18.70;;;17.70;;
2175;SDS011;1094;49.902;10.876;2023-03-14T07:42:01;17.83;;;17.00;;
2175;SDS011;1094;49.902;10.876;2023-03-14T07:44:27;17.63;;;16.73;;
2175;SDS011;1094;49.902;10.876;2023-03-14T07:46:53;18.03;;;16.93;;
2175;SDS011;1094;49.902;10.876;2023-03-14T07:49:19;18.03;;;17.13;;
2175;SDS011;1094;49.902;10.876;2023-03-14T07:51:49;17.97;;;17.07;;
2175;SDS011;1094;49.902;10.876;2023-03-14T07:54:15;18.03;;;17.10;;
2175;SDS011;1094;49.902;10.876;2023-03-14T07:56:41;17.80;;;17.00;;
2175;SDS011;1094;49.902;10.876;2023-03-14T07:59:07;17.97;;;17.07;;
2175;SDS011;1094;49.902;10.876;2023-03-14T08:01:33;17.87;;;17.07;;
2175;SDS011;1094;49.902;10.876;2023-03-14T08:03:59;18.20;;;17.20;;
2175;SDS011;1094;49.902;10.876;2023-03-14T08:06:25;18.23;;;17.23;;
2175;SDS011;1094;49.902;10.876;2023-03-14T08:08:51;18.47;;;17.47;;
2175;SDS011;1094;49.902;10.876;2023-03-14T08:11:17;17.80;;;16.90;;
2175;SDS011;1094;49.902;10.876;2023-03-14T08:13:43;18.37;;;17.47;;
2175;SDS011;1094;49.902;10.876;2023-03-14T08:16:14;17.73;;;16.80;;
2175;SDS011;1094;49.902;10.876;2023-03-14T08:18:43;17.90;;;17.00;;
2175;SDS011;1094;49.902;10.876;2023-03-14T08:21:09;17.87;;;16.87;;
2175;SDS011;1094;49.902;10.876;2023-03-14T08:23:35;18.40;;;17.40;;
2175;SDS011;1094;49.902;10.876;2023-03-14T08:26:01;18.30;;;17.40;;
2175;SDS011;1094;49.902;10.876;2023-03-14T08:28:27;18.70;;;17.40;;
2175;SDS011;1094;49.902;10.876;2023-03-14T08:30:55;18.50;;;17.50;;
2175;SDS011;1094;49.902;10.876;2023-03-14T08:33:22;18.40;;;17.50;;
2175;SDS011;1094;49.902;10.876;2023-03-14T08:35:47;18.20;;;17.30;;
2175;SDS011;1094;49.902;10.876;2023-03-14T08:38:14;19.07;;;18.07;;
2175;SDS011;1094;49.902;10.876;2023-03-14T08:40:39;18.80;;;17.80;;
2175;SDS011;1094;49.902;10.876;2023-03-14T08:43:05;19.07;;;18.07;;
2175;SDS011;1094;49.902;10.876;2023-03-14T08:45:31;18.57;;;17.47;;
2175;SDS011;1094;49.902;10.876;2023-03-14T08:47:57;18.33;;;17.43;;
2175;SDS011;1094;49.902;10.876;2023-03-14T08:50:23;18.73;;;17.73;;
2175;SDS011;1094;49.902;10.876;2023-03-14T08:52:49;18.70;;;17.80;;
2175;SDS011;1094;49.902;10.876;2023-03-14T08:55:15;18.17;;;17.07;;
2175;SDS011;1094;49.902;10.876;2023-03-14T08:57:41;18.47;;;17.50;;
2175;SDS011;1094;49.902;10.876;2023-03-14T09:00:07;18.27;;;17.27;;
2175;SDS011;1094;49.902;10.876;2023-03-14T09:02:40;17.90;;;16.90;;
2175;SDS011;1094;49.902;10.876;2023-03-14T09:05:06;18.10;;;16.90;;
2175;SDS011;1094;49.902;10.876;2023-03-14T09:07:32;18.33;;;17.40;;
2175;SDS011;1094;49.902;10.876;2023-03-14T09:09:58;18.27;;;17.37;;
2175;SDS011;1094;49.902;10.876;2023-03-14T09:12:24;18.13;;;17.10;;
2175;SDS011;1094;49.902;10.876;2023-03-14T09:14:50;17.97;;;17.07;;
2175;SDS011;1094;49.902;10.876;2023-03-14T09:17:16;18.67;;;17.57;;
2175;SDS011;1094;49.902;10.876;2023-03-14T09:19:42;18.63;;;17.63;;
2175;SDS011;1094;49.902;10.876;2023-03-14T09:22:08;18.17;;;17.27;;
2175;SDS011;1094;49.902;10.876;2023-03-14T09:24:34;18.97;;;17.77;;
2175;SDS011;1094;49.902;10.876;2023-03-14T09:27:00;18.60;;;17.67;;
2175;SDS011;1094;49.902;10.876;2023-03-14T09:29:26;18.57;;;17.50;;
2175;SDS011;1094;49.902;10.876;2023-03-14T09:31:52;18.70;;;17.70;;
2175;SDS011;1094;49.902;10.876;2023-03-14T09:34:18;18.40;;;17.40;;
2175;SDS011;1094;49.902;10.876;2023-03-14T09:36:44;18.30;;;17.20;;
2175;SDS011;1094;49.902;10.876;2023-03-14T09:39:10;17.80;;;16.83;;
2175;SDS011;1094;49.902;10.876;2023-03-14T09:41:43;18.03;;;17.13;;
2175;SDS011;1094;49.902;10.876;2023-03-14T09:46:36;18.20;;;17.20;;
2175;SDS011;1094;49.902;10.876;2023-03-14T09:49:07;18.17;;;17.27;;
2175;SDS011;1094;49.902;10.876;2023-03-14T09:51:35;17.80;;;17.00;;
2175;SDS011;1094;49.902;10.876;2023-03-14T09:54:01;18.07;;;17.17;;
2175;SDS011;1094;49.902;10.876;2023-03-14T09:56:28;18.70;;;17.30;;
2175;SDS011;1094;49.902;10.876;2023-03-14T09:58:55;18.00;;;17.10;;
2175;SDS011;1094;49.902;10.876;2023-03-14T10:01:24;18.20;;;17.20;;
2175;SDS011;1094;49.902;10.876;2023-03-14T10:03:53;17.70;;;16.90;;
2175;SDS011;1094;49.902;10.876;2023-03-14T10:06:19;18.53;;;17.63;;
2175;SDS011;1094;49.902;10.876;2023-03-14T10:08:47;18.17;;;17.27;;
2175;SDS011;1094;49.902;10.876;2023-03-14T10:11:14;18.70;;;17.50;;
2175;SDS011;1094;49.902;10.876;2023-03-14T10:13:48;17.83;;;17.03;;
2175;SDS011;1094;49.902;10.876;2023-03-14T10:16:15;17.93;;;16.93;;
2175;SDS011;1094;49.902;10.876;2023-03-14T10:18:43;18.07;;;17.17;;
2175;SDS011;1094;49.902;10.876;2023-03-14T10:23:48;18.47;;;17.37;;
2175;SDS011;1094;49.902;10.876;2023-03-14T10:26:15;17.43;;;16.63;;
2175;SDS011;1094;49.902;10.876;2023-03-14T10:28:48;17.83;;;16.97;;
2175;SDS011;1094;49.902;10.876;2023-03-14T10:31:16;17.83;;;16.93;;
2175;SDS011;1094;49.902;10.876;2023-03-14T10:33:42;17.47;;;16.57;;
2175;SDS011;1094;49.902;10.876;2023-03-14T10:36:23;18.03;;;17.00;;
2175;SDS011;1094;49.902;10.876;2023-03-14T10:38:51;17.57;;;16.77;;
2175;SDS011;1094;49.902;10.876;2023-03-14T10:43:50;17.57;;;16.77;;
2175;SDS011;1094;49.902;10.876;2023-03-14T10:46:17;17.03;;;16.27;;
2175;SDS011;1094;49.902;10.876;2023-03-14T10:48:43;17.53;;;16.67;;
2175;SDS011;1094;49.902;10.876;2023-03-14T10:53:46;18.30;;;17.30;;
2175;SDS011;1094;49.902;10.876;2023-03-14T10:56:14;17.67;;;16.77;;
2175;SDS011;1094;49.902;10.876;2023-03-14T10:58:44;18.03;;;17.13;;
2175;SDS011;1094;49.902;10.876;2023-03-14T11:04:04;17.67;;;16.77;;
2175;SDS011;1094;49.902;10.876;2023-03-14T11:06:40;17.70;;;16.90;;
2175;SDS011;1094;49.902;10.876;2023-03-14T11:09:22;17.60;;;16.50;;
2175;SDS011;1094;49.902;10.876;2023-03-14T11:11:52;17.63;;;16.83;;
2175;SDS011;1094;49.902;10.876;2023-03-14T11:16:49;17.90;;;16.90;;
2175;SDS011;1094;49.902;10.876;2023-03-14T11:19:27;17.50;;;16.70;;
2175;SDS011;1094;49.902;10.876;2023-03-14T11:22:13;17.53;;;16.53;;
2175;SDS011;1094;49.902;10.876;2023-03-14T11:24:51;17.70;;;16.80;;
2175;SDS011;1094;49.902;10.876;2023-03-14T11:29:57;17.80;;;17.00;;
2175;SDS011;1094;49.902;10.876;2023-03-14T11:32:41;17.80;;;16.90;;
2175;SDS011;1094;49.902;10.876;2023-03-14T11:38:02;17.67;;;16.77;;
2175;SDS011;1094;49.902;10.876;2023-03-14T11:40:29;17.47;;;16.57;;
2175;SDS011;1094;49.902;10.876;2023-03-14T11:42:59;17.70;;;16.90;;
2175;SDS011;1094;49.902;10.876;2023-03-14T11:45:28;17.80;;;16.90;;
2175;SDS011;1094;49.902;10.876;2023-03-14T11:48:07;17.90;;;16.90;;
2175;SDS011;1094;49.902;10.876;2023-03-14T11:50:39;16.70;;;15.90;;
2175;SDS011;1094;49.902;10.876;2023-03-14T11:53:09;17.40;;;16.60;;
2175;SDS011;1094;49.902;10.876;2023-03-14T11:55:37;17.33;;;16.53;;
2175;SDS011;1094;49.902;10.876;2023-03-14T12:00:49;17.70;;;16.90;;
2175;SDS011;1094;49.902;10.876;2023-03-14T12:10:51;20.00;;;18.90;;
2175;SDS011;1094;49.902;10.876;2023-03-14T12:13:19;17.60;;;16.80;;
2175;SDS011;1094;49.902;10.876;2023-03-14T12:15:49;17.90;;;17.10;;
2175;SDS011;1094;49.902;10.876;2023-03-14T12:18:25;17.77;;;16.87;;
2175;SDS011;1094;49.902;10.876;2023-03-14T12:20:59;17.43;;;16.53;;
2175;SDS011;1094;49.902;10.876;2023-03-14T12:23:26;17.70;;;16.90;;
2175;SDS011;1094;49.902;10.876;2023-03-14T12:26:08;18.00;;;17.10;;
2175;SDS011;1094;49.902;10.876;2023-03-14T12:28:39;17.23;;;16.33;;
2175;SDS011;1094;49.902;10.876;2023-03-14T12:34:00;17.50;;;16.70;;
2175;SDS011;1094;49.902;10.876;2023-03-14T12:42:10;18.20;;;17.20;;
2175;SDS011;1094;49.902;10.876;2023-03-14T12:44:43;17.90;;;17.10;;
2175;SDS011;1094;49.902;10.876;2023-03-14T12:47:34;17.87;;;17.03;;
2175;SDS011;1094;49.902;10.876;2023-03-14T12:49:59;18.10;;;17.20;;
2175;SDS011;1094;49.902;10.876;2023-03-14T12:52:36;18.63;;;17.73;;
2175;SDS011;1094;49.902;10.876;2023-03-14T12:55:14;18.50;;;17.60;;
2175;SDS011;1094;49.902;10.876;2023-03-14T12:57:45;17.90;;;17.10;;
2175;SDS011;1094;49.902;10.876;2023-03-14T13:00:16;17.80;;;17.00;;
2175;SDS011;1094;49.902;10.876;2023-03-14T13:02:43;17.73;;;16.90;;
2175;SDS011;1094;49.902;10.876;2023-03-14T13:12:57;18.50;;;17.53;;
2175;SDS011;1094;49.902;10.876;2023-03-14T13:17:51;18.57;;;17.67;;
2175;SDS011;1094;49.902;10.876;2023-03-14T13:20:28;18.77;;;17.87;;
2175;SDS011;1094;49.902;10.876;2023-03-14T13:22:54;18.50;;;17.60;;
2175;SDS011;1094;49.902;10.876;2023-03-14T13:25:20;18.40;;;17.50;;
2175;SDS011;1094;49.902;10.876;2023-03-14T13:27:51;18.70;;;17.53;;
2175;SDS011;1094;49.902;10.876;2023-03-14T13:30:20;18.17;;;17.37;;
2175;SDS011;1094;49.902;10.876;2023-03-14T13:32:47;17.97;;;16.97;;
2175;SDS011;1094;49.902;10.876;2023-03-14T13:37:42;17.67;;;16.87;;
2175;SDS011;1094;49.902;10.876;2023-03-14T13:40:17;19.20;;;18.30;;
2175;SDS011;1094;49.902;10.876;2023-03-14T13:42:43;19.20;;;18.30;;
2175;SDS011;1094;49.902;10.876;2023-03-14T13:45:12;18.80;;;17.90;;
2175;SDS011;1094;49.902;10.876;2023-03-14T13:47:38;18.60;;;17.60;;
2175;SDS011;1094;49.902;10.876;2023-03-14T13:50:04;18.50;;;17.47;;
2175;SDS011;1094;49.902;10.876;2023-03-14T13:52:31;17.57;;;16.77;;
2175;SDS011;1094;49.902;10.876;2023-03-14T13:58:03;17.27;;;16.47;;
2175;SDS011;1094;49.902;10.876;2023-03-14T14:00:29;19.53;;;18.43;;
2175;SDS011;1094;49.902;10.876;2023-03-14T14:02:58;19.87;;;18.90;;
2175;SDS011;1094;49.902;10.876;2023-03-14T14:05:26;19.37;;;18.37;;
2175;SDS011;1094;49.902;10.876;2023-03-14T14:07:52;18.70;;;17.80;;
2175;SDS011;1094;49.902;10.876;2023-03-14T14:10:19;18.13;;;17.33;;
2175;SDS011;1094;49.902;10.876;2023-03-14T14:12:46;17.83;;;17.03;;
2175;SDS011;1094;49.902;10.876;2023-03-14T14:15:23;18.30;;;17.20;;
2175;SDS011;1094;49.902;10.876;2023-03-14T14:17:52;17.90;;;17.10;;
2175;SDS011;1094;49.902;10.876;2023-03-14T14:20:33;18.00;;;17.10;;
2175;SDS011;1094;49.902;10.876;2023-03-14T14:23:04;18.97;;;18.10;;
2175;SDS011;1094;49.902;10.876;2023-03-14T14:25:31;17.90;;;17.10;;
2175;SDS011;1094;49.902;10.876;2023-03-14T14:27:57;17.23;;;16.43;;
2175;SDS011;1094;49.902;10.876;2023-03-14T14:30:30;17.10;;;16.40;;
2175;SDS011;1094;49.902;10.876;2023-03-14T14:33:16;16.70;;;16.00;;
2175;SDS011;1094;49.902;10.876;2023-03-14T14:35:48;17.40;;;16.60;;
2175;SDS011;1094;49.902;10.876;2023-03-14T14:38:16;18.03;;;17.23;;
2175;SDS011;1094;49.902;10.876;2023-03-14T14:40:45;17.60;;;16.70;;
2175;SDS011;1094;49.902;10.876;2023-03-14T14:43:14;16.80;;;16.00;;
2175;SDS011;1094;49.902;10.876;2023-03-14T14:45:42;17.23;;;16.43;;
2175;SDS011;1094;49.902;10.876;2023-03-14T14:48:21;17.43;;;16.63;;
2175;SDS011;1094;49.902;10.876;2023-03-14T14:53:26;17.13;;;16.33;;
2175;SDS011;1094;49.902;10.876;2023-03-14T14:55:53;17.77;;;16.97;;
2175;SDS011;1094;49.902;10.876;2023-03-14T14:58:23;18.00;;;17.20;;
2175;SDS011;1094;49.902;10.876;2023-03-14T15:00:53;18.30;;;17.40;;
2175;SDS011;1094;49.902;10.876;2023-03-14T15:03:20;18.30;;;17.40;;
2175;SDS011;1094;49.902;10.876;2023-03-14T15:05:46;18.67;;;17.83;;
2175;SDS011;1094;49.902;10.876;2023-03-14T15:08:12;17.43;;;16.63;;
2175;SDS011;1094;49.902;10.876;2023-03-14T15:10:38;17.50;;;16.70;;
2175;SDS011;1094;49.902;10.876;2023-03-14T15:13:04;17.10;;;16.30;;
2175;SDS011;1094;49.902;10.876;2023-03-14T15:15:32;18.10;;;17.30;;
2175;SDS011;1094;49.902;10.876;2023-03-14T15:17:59;18.20;;;17.30;;
2175;SDS011;1094;49.902;10.876;2023-03-14T15:20:25;18.30;;;17.40;;
2175;SDS011;1094;49.902;10.876;2023-03-14T15:22:51;17.70;;;16.90;;
2175;SDS011;1094;49.902;10.876;2023-03-14T15:25:17;18.50;;;17.63;;
2175;SDS011;1094;49.902;10.876;2023-03-14T15:27:43;17.77;;;16.97;;
2175;SDS011;1094;49.902;10.876;2023-03-14T15:30:13;18.10;;;17.30;;
2175;SDS011;1094;49.902;10.876;2023-03-14T15:32:39;18.43;;;17.63;;
2175;SDS011;1094;49.902;10.876;2023-03-14T15:35:08;18.90;;;18.00;;
2175;SDS011;1094;49.902;10.876;2023-03-14T15:37:34;18.43;;;17.63;;
2175;SDS011;1094;49.902;10.876;2023-03-14T15:40:01;18.97;;;18.00;;
2175;SDS011;1094;49.902;10.876;2023-03-14T15:42:29;17.93;;;17.13;;
2175;SDS011;1094;49.902;10.876;2023-03-14T15:44:55;18.17;;;17.30;;